Time;durP1;ratioP1;P1;durP2;ratioP2;P2;SDS_P1;SDS_P2;PMS_P1;PMS_P2;Temp;Humidity;BMP_temperature;BMP_pressure;BME280_temperature;BME280_humidity;BME280_pressure;Samples;Min_cycle;Max_cycle;Signal;HPM_P1;HPM_P2
2023/03/04 00:01:27;;;;;;;;;;;;;;;17.96;61.65;101142.63;2221010;80;50867;-77
2023/03/04 00:04:29;;;;;;;;;;;;;;;17.92;61.72;101151.98;2204505;80;50495;-77
2023/03/04 00:07:31;;;;;;;;;;;;;;;17.86;61.81;101148.14;2204359;79;51563;-77
2023/03/04 00:10:32;;;;;;;;;;;;;;;17.81;61.76;101143.78;2196719;80;52450;-77
2023/03/04 00:13:34;;;;;;;;;;;;;;;17.78;61.97;101149.45;2221199;80;51513;-77
2023/03/04 00:16:35;;;;;;;;;;;;;;;17.77;62.13;101147.25;2186469;79;50578;-77
2023/03/04 00:19:37;;;;;;;;;;;;;;;17.80;62.10;101137.60;2202803;78;50588;-77
2023/03/04 00:22:38;;;;;;;;;;;;;;;17.87;62.00;101131.57;2168860;82;51233;-77
2023/03/04 00:25:40;;;;;;;;;;;;;;;17.96;61.75;101123.38;2150254;80;50845;-76
2023/03/04 00:28:42;;;;;;;;;;;;;;;17.98;61.62;101126.73;2148989;80;51560;-77
2023/03/04 00:31:43;;;;;;;;;;;;;;;17.99;61.59;101119.02;2124916;83;50467;-77
2023/03/04 00:34:45;;;;;;;;;;;;;;;17.98;61.57;101117.36;2156319;81;51402;-77
2023/03/04 00:37:46;;;;;;;;;;;;;;;17.96;61.61;101115.86;2148940;83;51749;-76
2023/03/04 00:40:48;;;;;;;;;;;;;;;17.91;61.70;101121.71;2124852;83;50432;-76
2023/03/04 00:43:50;;;;;;;;;;;;;;;17.87;61.74;101120.86;2125252;83;50427;-77
2023/03/04 00:46:51;;;;;;;;;;;;;;;17.82;61.76;101114.66;2154141;80;52501;-76
2023/03/04 00:49:53;;;;;;;;;;;;;;;17.76;61.91;101112.63;2172678;80;51959;-76
2023/03/04 00:52:54;;;;;;;;;;;;;;;17.72;62.09;101117.97;2160993;82;51432;-76
2023/03/04 00:55:56;;;;;;;;;;;;;;;17.75;62.18;101097.55;2160976;82;50482;-76
2023/03/04 00:58:58;;;;;;;;;;;;;;;17.79;62.21;101104.27;2159056;80;50405;-76
2023/03/04 01:01:59;;;;;;;;;;;;;;;17.87;62.08;101095.44;2189698;78;50437;-76
2023/03/04 01:05:01;;;;;;;;;;;;;;;17.96;61.86;101094.44;2166830;82;50775;-76
2023/03/04 01:08:02;;;;;;;;;;;;;;;18.01;61.68;101088.91;2166778;82;51588;-77
2023/03/04 01:11:04;;;;;;;;;;;;;;;18.02;61.62;101090.57;2168211;82;51774;-76
2023/03/04 01:14:06;;;;;;;;;;;;;;;18.03;61.52;101087.38;2190089;81;50482;-76
2023/03/04 01:17:07;;;;;;;;;;;;;;;18.00;61.53;101089.89;2166795;82;50451;-77
2023/03/04 01:20:09;;;;;;;;;;;;;;;17.98;61.62;101094.61;2190057;80;50773;-77
2023/03/04 01:23:11;;;;;;;;;;;;;;;17.96;61.56;101088.58;2165370;82;53411;-77
2023/03/04 01:26:12;;;;;;;;;;;;;;;17.94;61.61;101082.55;2149108;81;51471;-77
2023/03/04 01:29:14;;;;;;;;;;;;;;;17.89;61.58;101071.50;2154815;80;51554;-77
2023/03/04 01:32:15;;;;;;;;;;;;;;;17.82;61.65;101066.48;2159833;81;50354;-76
2023/03/04 01:35:17;;;;;;;;;;;;;;;17.78;61.86;101062.45;2148275;83;51542;-77
2023/03/04 01:38:19;;;;;;;;;;;;;;;17.81;61.98;101061.64;2170918;81;51580;-77
2023/03/04 01:41:22;;;;;;;;;;;;;;;17.86;62.02;101059.80;2148074;83;51547;-77
2023/03/04 01:44:24;;;;;;;;;;;;;;;17.95;61.83;101060.11;2148279;83;50474;-77
2023/03/04 01:47:27;;;;;;;;;;;;;;;17.97;61.63;101054.09;2147588;82;51595;-77
2023/03/04 01:50:30;;;;;;;;;;;;;;;17.99;61.53;101057.44;2148043;83;51523;-76
2023/03/04 01:53:31;;;;;;;;;;;;;;;17.96;61.44;101057.78;2148258;81;51574;-77
2023/03/04 01:56:37;;;;;;;;;;;;;;;17.93;61.54;101050.09;2148339;82;51621;-76
2023/03/04 01:59:40;;;;;;;;;;;;;;;17.89;61.48;101047.41;2159403;81;50767;-77
2023/03/04 02:02:41;;;;;;;;;;;;;;;17.84;61.55;101036.38;2180230;79;50157;-77
2023/03/04 02:05:44;;;;;;;;;;;;;;;17.80;61.52;101039.04;2166878;82;50490;-77
2023/03/04 02:08:45;;;;;;;;;;;;;;;17.76;61.61;101035.02;2166931;82;51516;-77
2023/03/04 02:11:47;;;;;;;;;;;;;;;17.75;61.68;101036.00;2190080;81;52621;-76
2023/03/04 02:14:49;;;;;;;;;;;;;;;17.74;61.81;101029.81;2190165;81;51530;-77
2023/03/04 02:17:51;;;;;;;;;;;;;;;17.78;61.76;101036.52;2190066;81;51500;-77
2023/03/04 02:21:06;;;;;;;;;;;;;;;17.84;61.66;101022.48;2166671;82;50450;-76
2023/03/04 02:24:26;;;;;;;;;;;;;;;17.92;61.48;101015.45;2144791;82;50149;-77
2023/03/04 02:27:27;;;;;;;;;;;;;;;18.00;61.34;101022.95;2166844;82;51543;-77
2023/03/04 02:30:29;;;;;;;;;;;;;;;18.02;61.21;101014.25;2156288;82;51650;-77
2023/03/04 02:33:32;;;;;;;;;;;;;;;18.02;61.17;101012.91;2200591;80;50802;-77
2023/03/04 02:36:33;;;;;;;;;;;;;;;18.01;61.14;101015.27;2220960;78;50761;-77
2023/03/04 02:39:36;;;;;;;;;;;;;;;17.99;61.14;101006.57;2204110;80;51577;-76
2023/03/04 02:42:37;;;;;;;;;;;;;;;17.96;61.12;100998.05;2221265;79;50589;-76
2023/03/04 02:45:40;;;;;;;;;;;;;;;17.92;61.19;100995.38;2221356;79;50910;-76
2023/03/04 02:48:42;;;;;;;;;;;;;;;17.88;61.25;100993.55;2186575;80;52547;-76
2023/03/04 02:51:44;;;;;;;;;;;;;;;17.81;61.29;100983.19;2204330;79;50758;-76
2023/03/04 02:54:45;;;;;;;;;;;;;;;17.76;61.50;100978.81;2204329;79;51544;-76
2023/03/04 02:57:47;;;;;;;;;;;;;;;17.76;61.57;100974.28;2204273;80;51591;-76
2023/03/04 03:00:48;;;;;;;;;;;;;;;17.83;61.55;100980.67;2152798;81;50028;-76
2023/03/04 03:03:50;;;;;;;;;;;;;;;17.93;61.34;100983.17;2183736;81;51523;-77
2023/03/04 03:06:52;;;;;;;;;;;;;;;17.98;61.27;100978.61;2183841;81;51514;-76
2023/03/04 03:09:53;;;;;;;;;;;;;;;17.98;61.19;100981.30;2160647;82;51569;-77
2023/03/04 03:12:55;;;;;;;;;;;;;;;17.97;61.16;100980.46;2160928;82;51594;-77
2023/03/04 03:15:56;;;;;;;;;;;;;;;17.95;61.07;100972.27;2160978;82;50974;-77
2023/03/04 03:18:58;;;;;;;;;;;;;;;17.91;61.19;100975.80;2160810;82;51578;-76
2023/03/04 03:21:59;;;;;;;;;;;;;;;17.87;61.31;100978.98;2160750;82;52168;-76
2023/03/04 03:25:01;;;;;;;;;;;;;;;17.83;61.26;100973.15;2151633;82;50153;-76
2023/03/04 03:28:03;;;;;;;;;;;;;;;17.75;61.39;100974.44;2159937;82;50462;-76
2023/03/04 03:31:04;;;;;;;;;;;;;;;17.70;61.56;100976.79;2174190;80;50477;-76
2023/03/04 03:34:06;;;;;;;;;;;;;;;17.69;61.66;100972.45;2204196;79;50436;-77
2023/03/04 03:37:08;;;;;;;;;;;;;;;17.73;61.70;100979.16;2196815;80;49540;-76
2023/03/04 03:40:10;;;;;;;;;;;;;;;17.76;61.65;100967.59;2204075;79;50437;-76
2023/03/04 03:43:11;;;;;;;;;;;;;;;17.83;61.53;100963.78;2221106;79;51450;-76
2023/03/04 03:46:13;;;;;;;;;;;;;;;17.91;61.42;100965.09;2173349;80;50471;-77
2023/03/04 03:49:16;;;;;;;;;;;;;;;17.99;61.25;100957.55;2148613;83;50541;-77
2023/03/04 03:52:17;;;;;;;;;;;;;;;18.02;61.10;100957.20;2148848;83;51508;-78
2023/03/04 03:55:19;;;;;;;;;;;;;;;18.00;61.02;100950.66;2126260;83;51525;-76
2023/03/04 03:58:22;;;;;;;;;;;;;;;18.00;61.00;100948.50;2148774;81;50761;-77
2023/03/04 04:01:23;;;;;;;;;;;;;;;18.00;61.01;100943.14;2164029;81;51228;-78
2023/03/04 04:04:25;;;;;;;;;;;;;;;17.96;61.06;100938.64;2189965;81;50808;-76
2023/03/04 04:07:26;;;;;;;;;;;;;;;17.92;61.13;100934.63;2166891;82;51547;-77
2023/03/04 04:10:28;;;;;;;;;;;;;;;17.89;61.17;100943.52;2166747;82;51554;-77
2023/03/04 04:13:29;;;;;;;;;;;;;;;17.79;61.27;100938.31;2166541;82;52345;-77
2023/03/04 04:16:31;;;;;;;;;;;;;;;17.77;61.44;100941.66;2166892;82;51553;-76
2023/03/04 04:19:33;;;;;;;;;;;;;;;17.76;61.56;100940.00;2190090;81;50482;-76
2023/03/04 04:22:34;;;;;;;;;;;;;;;17.79;61.58;100935.64;2190373;80;50532;-77
2023/03/04 04:25:36;;;;;;;;;;;;;;;17.88;61.48;100937.81;2166693;82;52389;-76
2023/03/04 04:28:37;;;;;;;;;;;;;;;17.96;61.23;100938.64;2185587;81;50474;-76
2023/03/04 04:31:39;;;;;;;;;;;;;;;17.99;61.12;100934.28;2172042;80;50549;-75
2023/03/04 04:34:40;;;;;;;;;;;;;;;17.99;61.17;100929.44;2204597;80;50779;-76
2023/03/04 04:37:42;;;;;;;;;;;;;;;17.98;61.13;100924.59;2204266;80;50775;-75
2023/03/04 04:40:44;;;;;;;;;;;;;;;17.96;61.14;100929.27;2221103;79;51570;-75
2023/03/04 04:43:45;;;;;;;;;;;;;;;17.94;61.24;100934.47;2204375;80;51980;-75
2023/03/04 04:46:47;;;;;;;;;;;;;;;17.89;61.28;100923.44;2204342;80;51529;-74
2023/03/04 04:49:48;;;;;;;;;;;;;;;17.84;61.32;100925.28;2220913;78;52383;-75
2023/03/04 04:52:50;;;;;;;;;;;;;;;17.78;61.29;100920.59;2221245;78;51570;-75
2023/03/04 04:55:51;;;;;;;;;;;;;;;17.75;61.52;100915.56;2204307;80;51547;-74
2023/03/04 04:58:54;;;;;;;;;;;;;;;17.75;61.64;100917.76;2203576;79;50153;-74
2023/03/04 05:01:55;;;;;;;;;;;;;;;17.79;61.66;100909.73;2181126;80;51077;-76
2023/03/04 05:04:57;;;;;;;;;;;;;;;17.86;61.61;100913.91;2172679;81;51934;-76
2023/03/04 05:07:58;;;;;;;;;;;;;;;17.97;61.38;100909.52;2148110;81;50473;-75
2023/03/04 05:11:00;;;;;;;;;;;;;;;18.00;61.23;100907.82;2147801;83;50496;-75
2023/03/04 05:14:01;;;;;;;;;;;;;;;18.01;61.20;100915.37;2172649;81;52407;-75
2023/03/04 05:17:03;;;;;;;;;;;;;;;18.00;61.15;100911.02;2172686;81;50134;-76
2023/03/04 05:20:06;;;;;;;;;;;;;;;17.98;61.08;100909.86;2147846;83;50550;-76
2023/03/04 05:23:07;;;;;;;;;;;;;;;17.95;61.11;100912.86;2148262;81;51589;-76
2023/03/04 05:26:09;;;;;;;;;;;;;;;17.93;61.19;100910.88;2172787;81;51765;-76
2023/03/04 05:29:11;;;;;;;;;;;;;;;17.89;61.24;100910.05;2178042;81;49992;-76
2023/03/04 05:32:13;;;;;;;;;;;;;;;17.82;61.11;100905.37;2186489;80;50482;-75
2023/03/04 05:35:14;;;;;;;;;;;;;;;17.77;61.39;100902.84;2204390;80;51564;-76
2023/03/04 05:38:18;;;;;;;;;;;;;;;17.75;61.62;100908.87;2221057;78;50757;-75
2023/03/04 05:41:21;;;;;;;;;;;;;;;17.79;61.63;100907.05;2204210;80;50373;-75
2023/03/04 05:44:23;;;;;;;;;;;;;;;17.88;61.65;100909.22;2204353;80;51576;-75
2023/03/04 05:47:24;;;;;;;;;;;;;;;17.96;61.52;100911.87;2204334;80;51686;-75
2023/03/04 05:50:26;;;;;;;;;;;;;;;18.00;61.50;100905.14;2196577;80;52806;-76
2023/03/04 05:53:28;;;;;;;;;;;;;;;18.00;61.41;100898.45;2221171;79;51623;-74
2023/03/04 05:56:30;;;;;;;;;;;;;;;18.00;61.34;100904.31;2204203;80;50843;-75
2023/03/04 05:59:32;;;;;;;;;;;;;;;17.98;61.29;100900.49;2181761;80;50559;-76
2023/03/04 06:02:33;;;;;;;;;;;;;;;17.95;61.31;100902.66;2172364;81;51240;-74
2023/03/04 06:05:35;;;;;;;;;;;;;;;17.92;61.34;100898.48;2209496;80;50503;-76
2023/03/04 06:08:36;;;;;;;;;;;;;;;17.89;61.38;100901.52;2184183;80;50776;-76
2023/03/04 06:11:38;;;;;;;;;;;;;;;17.86;61.31;100903.71;2209416;80;51586;-75
2023/03/04 06:14:39;;;;;;;;;;;;;;;17.82;61.37;100898.67;2209898;80;50166;-77
2023/03/04 06:17:42;;;;;;;;;;;;;;;17.84;61.24;100898.01;2184012;80;50781;-78
2023/03/04 06:20:44;;;;;;;;;;;;;;;17.87;61.11;100901.36;2184040;80;50586;-76
2023/03/04 06:23:45;;;;;;;;;;;;;;;17.96;60.89;100901.16;2209581;79;51599;-76
2023/03/04 06:26:47;;;;;;;;;;;;;;;18.06;60.51;100911.17;2185811;81;51737;-75
2023/03/04 06:29:49;;;;;;;;;;;;;;;18.12;60.35;100904.78;2172810;80;51953;-77
2023/03/04 06:32:50;;;;;;;;;;;;;;;18.14;60.22;100905.45;2193406;80;50781;-77
2023/03/04 06:35:55;;;;;;;;;;;;;;;18.17;60.10;100906.44;2204351;79;50512;-76
2023/03/04 06:38:57;;;;;;;;;;;;;;;18.12;60.11;100906.12;2221426;78;51220;-76
2023/03/04 06:41:58;;;;;;;;;;;;;;;18.04;60.19;100903.80;2220962;79;50470;-76
2023/03/04 06:45:00;;;;;;;;;;;;;;;18.03;60.20;100910.66;2181214;80;50787;-76
2023/03/04 06:48:01;;;;;;;;;;;;;;;18.01;60.18;100912.19;2159458;80;50814;-77
2023/03/04 06:51:07;;;;;;;;;;;;;;;17.97;60.24;100909.52;2141591;82;52557;-76
2023/03/04 06:54:09;;;;;;;;;;;;;;;17.99;60.12;100910.18;2164846;82;51620;-76
2023/03/04 06:57:10;;;;;;;;;;;;;;;17.93;60.24;100909.55;2161817;81;50498;-76
2023/03/04 07:00:12;;;;;;;;;;;;;;;17.84;60.42;100907.89;2152103;80;50459;-77
2023/03/04 07:03:14;;;;;;;;;;;;;;;17.90;60.33;100909.03;2163163;81;51730;-77
2023/03/04 07:06:16;;;;;;;;;;;;;;;17.95;60.19;100908.84;2202983;79;50914;-75
2023/03/04 07:09:17;;;;;;;;;;;;;;;18.01;60.06;100910.84;2155353;81;50336;-76
2023/03/04 07:12:19;;;;;;;;;;;;;;;18.07;59.89;100913.33;2153276;81;50495;-75
2023/03/04 07:15:21;;;;;;;;;;;;;;;18.12;59.73;100914.16;2167651;80;49607;-75
2023/03/04 07:18:22;;;;;;;;;;;;;;;18.14;59.67;100913.48;2160602;81;50789;-75
2023/03/04 07:21:24;;;;;;;;;;;;;;;18.12;59.69;100906.95;2169046;81;51677;-75
2023/03/04 07:24:26;;;;;;;;;;;;;;;18.11;59.83;100905.78;2169310;79;50840;-75
2023/03/04 07:27:39;;;;;;;;;;;;;;;18.08;59.95;100910.97;2183094;79;51218;-73
2023/03/04 07:30:41;;;;;;;;;;;;;;;18.05;60.07;100912.16;2208079;78;22484;-77
2023/03/04 07:33:42;;;;;;;;;;;;;;;18.03;60.05;100915.53;2123637;82;51522;-77
2023/03/04 07:36:44;;;;;;;;;;;;;;;18.02;60.03;100913.84;2135665;82;51537;-76
2023/03/04 07:39:45;;;;;;;;;;;;;;;17.93;60.25;100914.04;2131558;82;49606;-74
2023/03/04 07:42:52;;;;;;;;;;;;;;;17.90;60.42;100914.39;2173442;79;50395;-77
2023/03/04 07:45:56;;;;;;;;;;;;;;;17.96;60.29;100914.55;2127935;82;50367;-75
2023/03/04 07:48:57;;;;;;;;;;;;;;;18.02;60.25;100912.50;2175003;81;50458;-78
2023/03/04 07:52:01;;;;;;;;;;;;;;;18.14;60.02;100910.81;2177597;81;52303;-78
2023/03/04 07:55:02;;;;;;;;;;;;;;;18.18;59.91;100914.80;2166837;80;51753;-77
2023/03/04 07:58:04;;;;;;;;;;;;;;;18.22;59.77;100912.11;2218436;78;50163;-78
2023/03/04 08:01:10;;;;;;;;;;;;;;;18.21;59.83;100912.62;2142291;82;51661;-78
2023/03/04 08:04:11;;;;;;;;;;;;;;;18.22;59.77;100918.30;2137223;81;50850;-78
2023/03/04 08:07:13;;;;;;;;;;;;;;;18.16;59.77;100913.64;2175439;81;50646;-78
2023/03/04 08:10:15;;;;;;;;;;;;;;;18.15;59.71;100921.84;2129008;83;50510;-79
2023/03/04 08:13:16;;;;;;;;;;;;;;;18.09;59.81;100908.65;2152737;82;50800;-77
2023/03/04 08:16:18;;;;;;;;;;;;;;;18.03;59.89;100916.88;2153279;82;51016;-78
2023/03/04 08:19:19;;;;;;;;;;;;;;;17.98;60.02;100917.89;2129125;83;51607;-78
2023/03/04 08:22:21;;;;;;;;;;;;;;;17.98;60.02;100911.20;2129240;83;51470;-78
2023/03/04 08:25:22;;;;;;;;;;;;;;;18.04;59.83;100910.50;2129296;83;51562;-78
2023/03/04 08:28:24;;;;;;;;;;;;;;;18.10;59.64;100898.77;2058342;85;51684;-78
2023/03/04 08:31:26;;;;;;;;;;;;;;;18.19;59.41;100905.26;2150230;81;50543;-79
2023/03/04 08:34:27;;;;;;;;;;;;;;;18.26;59.23;100904.03;2122395;83;50529;-78
2023/03/04 08:37:29;;;;;;;;;;;;;;;18.27;59.10;100907.06;2099442;82;50482;-78
2023/03/04 08:40:31;;;;;;;;;;;;;;;18.27;59.11;100897.69;2121420;83;52376;-78
2023/03/04 08:43:33;;;;;;;;;;;;;;;18.26;59.08;100905.38;2079574;85;50804;-78
2023/03/04 08:46:35;;;;;;;;;;;;;;;18.20;59.15;100900.22;2127850;83;50450;-77
2023/03/04 08:49:37;;;;;;;;;;;;;;;18.18;59.18;100900.06;2098085;83;51627;-78
2023/03/04 08:52:38;;;;;;;;;;;;;;;18.15;59.20;100895.89;2111460;83;49684;-79
2023/03/04 08:55:40;;;;;;;;;;;;;;;18.10;59.29;100888.05;2195070;79;50502;-77
2023/03/04 08:58:42;;;;;;;;;;;;;;;18.07;59.31;100879.86;2160282;82;50480;-78
2023/03/04 09:01:43;;;;;;;;;;;;;;;18.03;59.45;100877.19;2165700;80;50462;-78
2023/03/04 09:04:45;;;;;;;;;;;;;;;18.06;59.43;100880.88;2175988;79;50129;-76
2023/03/04 09:07:46;;;;;;;;;;;;;;;18.13;59.39;100878.33;2194443;79;50718;-76
2023/03/04 09:10:49;;;;;;;;;;;;;;;18.15;59.39;100871.78;2204918;79;52128;-79
2023/03/04 09:13:52;;;;;;;;;;;;;;;18.17;59.42;100873.79;2205370;80;49875;-78
2023/03/04 09:16:53;;;;;;;;;;;;;;;18.15;59.50;100876.31;2189230;80;50170;-78
2023/03/04 09:19:55;;;;;;;;;;;;;;;18.15;59.44;100879.81;2199998;79;50777;-78
2023/03/04 09:22:56;;;;;;;;;;;;;;;18.12;59.52;100887.38;2147902;83;50407;-77
2023/03/04 09:25:58;;;;;;;;;;;;;;;18.15;59.34;100889.70;2148041;83;50750;-78
2023/03/04 09:29:00;;;;;;;;;;;;;;;18.12;59.34;100882.02;2127977;81;51651;-78
2023/03/04 09:32:02;;;;;;;;;;;;;;;18.09;59.39;100879.19;2200890;79;49970;-82
2023/03/04 09:35:03;;;;;;;;;;;;;;;18.02;59.21;100891.09;2161543;82;51576;-79
2023/03/04 09:38:05;;;;;;;;;;;;;;;17.95;59.18;100891.44;2165576;79;51518;-77
2023/03/04 09:41:08;;;;;;;;;;;;;;;17.95;59.25;100886.59;2190094;81;51606;-77
2023/03/04 09:44:20;;;;;;;;;;;;;;;18.00;59.22;100886.41;2226121;79;50454;-77
2023/03/04 09:47:22;;;;;;;;;;;;;;;18.01;59.48;100890.77;2197988;81;51591;-76
2023/03/04 09:50:23;;;;;;;;;;;;;;;18.06;59.62;100896.95;2197826;81;51539;-76
2023/03/04 09:53:29;;;;;;;;;;;;;;;18.11;59.40;100892.39;2183968;79;51668;-76
2023/03/04 09:56:32;;;;;;;;;;;;;;;18.12;59.31;100893.56;2178502;79;50577;-76
2023/03/04 09:59:35;;;;;;;;;;;;;;;18.13;59.27;100886.36;2153333;80;51939;-79
2023/03/04 10:02:38;;;;;;;;;;;;;;;18.14;59.19;100890.72;2140973;81;51004;-79
2023/03/04 10:05:47;;;;;;;;;;;;;;;18.14;59.17;100885.38;2160173;80;51551;-79
2023/03/04 10:09:02;;;;;;;;;;;;;;;18.06;59.33;100888.92;2157526;80;50449;-80
2023/03/04 10:12:05;;;;;;;;;;;;;;;18.02;59.39;100884.91;2155653;80;51599;-76
2023/03/04 10:15:09;;;;;;;;;;;;;;;18.03;59.37;100889.23;2181681;80;50807;-78
2023/03/04 10:18:24;;;;;;;;;;;;;;;17.93;59.57;100898.84;2141965;81;51804;-77
2023/03/04 10:21:33;;;;;;;;;;;;;;;17.85;59.81;100889.47;2158302;81;50758;-77
2023/03/04 10:24:34;;;;;;;;;;;;;;;17.88;59.82;100884.27;2147516;81;50748;-77
2023/03/04 10:27:36;;;;;;;;;;;;;;;17.99;59.54;100890.61;2147480;83;50892;-75
2023/03/04 10:30:45;;;;;;;;;;;;;;;18.04;59.34;100887.73;2146730;83;52495;-75
2023/03/04 10:33:47;;;;;;;;;;;;;;;18.08;59.27;100886.88;2147426;81;51528;-74
2023/03/04 10:36:50;;;;;;;;;;;;;;;18.05;59.30;100886.72;2147311;83;51536;-76
2023/03/04 10:39:52;;;;;;;;;;;;;;;18.11;59.14;100895.06;2147164;83;51488;-75
2023/03/04 10:42:54;;;;;;;;;;;;;;;18.06;59.23;100895.09;2147363;83;51533;-74
2023/03/04 10:45:56;;;;;;;;;;;;;;;18.05;59.20;100882.70;2147144;82;51742;-76
2023/03/04 10:48:58;;;;;;;;;;;;;;;18.03;59.37;100884.74;2119188;82;50100;-76
2023/03/04 10:52:15;;;;;;;;;;;;;;;18.06;59.37;100879.03;2152854;82;50762;-77
2023/03/04 10:55:18;;;;;;;;;;;;;;;18.03;59.59;100878.05;2148632;83;50772;-76
2023/03/04 10:58:20;;;;;;;;;;;;;;;18.03;59.59;100875.38;2148176;81;51710;-76
2023/03/04 11:01:24;;;;;;;;;;;;;;;18.16;59.32;100877.97;2148399;83;50480;-74
2023/03/04 11:04:25;;;;;;;;;;;;;;;18.18;59.21;100879.98;2150458;80;22677;-76
2023/03/04 11:07:26;;;;;;;;;;;;;;;18.21;59.09;100880.95;2174469;81;50698;-76
2023/03/04 11:10:39;;;;;;;;;;;;;;;18.20;59.07;100881.47;2195114;79;51765;-76
2023/03/04 11:13:40;;;;;;;;;;;;;;;18.17;59.11;100878.31;2177579;80;51514;-76
2023/03/04 11:16:44;;;;;;;;;;;;;;;18.15;59.17;100884.34;2182169;80;51564;-76
2023/03/04 11:19:47;;;;;;;;;;;;;;;18.13;59.19;100893.88;2149078;81;51560;-78
2023/03/04 11:22:48;;;;;;;;;;;;;;;18.10;59.21;100890.22;2124381;83;52471;-77
2023/03/04 11:25:52;;;;;;;;;;;;;;;18.10;59.21;100886.71;2148615;80;50127;-77
2023/03/04 11:29:10;;;;;;;;;;;;;;;18.09;59.33;100882.38;2148728;83;50798;-77
2023/03/04 11:32:13;;;;;;;;;;;;;;;18.02;59.66;100888.41;2148722;82;50468;-78
2023/03/04 11:35:17;;;;;;;;;;;;;;;18.02;59.82;100896.95;2148249;81;51206;-77
2023/03/04 11:38:20;;;;;;;;;;;;;;;17.99;60.07;100903.48;2148879;80;50765;-77
2023/03/04 11:41:38;;;;;;;;;;;;;;;17.99;60.24;100907.50;2164648;80;50848;-76
2023/03/04 11:44:40;;;;;;;;;;;;;;;18.05;60.15;100900.11;2116255;83;50451;-74
2023/03/04 11:47:58;;;;;;;;;;;;;;;18.01;60.12;100890.77;2115487;83;52380;-75
2023/03/04 11:51:04;;;;;;;;;;;;;;;18.03;60.05;100899.95;2142422;80;50773;-75
2023/03/04 11:54:10;;;;;;;;;;;;;;;18.00;60.04;100899.79;2148694;81;51484;-74
2023/03/04 11:57:22;;;;;;;;;;;;;;;17.94;60.13;100896.48;2148180;81;50775;-74
2023/03/04 12:00:28;;;;;;;;;;;;;;;17.92;60.17;100893.12;2148551;81;51620;-74
2023/03/04 12:03:32;;;;;;;;;;;;;;;17.87;60.20;100887.45;2148785;81;51565;-73
2023/03/04 12:06:44;;;;;;;;;;;;;;;17.85;60.14;100902.85;2147322;80;50839;-76
2023/03/04 12:09:47;;;;;;;;;;;;;;;17.94;59.13;100892.97;2149491;81;51527;-74
2023/03/04 12:12:50;;;;;;;;;;;;;;;17.97;58.68;100900.14;2153858;81;51498;-75
2023/03/04 12:15:59;;;;;;;;;;;;;;;18.44;57.12;100902.44;2184019;80;51545;-75
2023/03/04 12:19:06;;;;;;;;;;;;;;;18.52;57.31;100890.84;2184524;81;51984;-75
2023/03/04 12:22:12;;;;;;;;;;;;;;;18.43;57.71;100902.95;2184435;81;50230;-75
2023/03/04 12:25:32;;;;;;;;;;;;;;;18.31;58.13;100904.86;2176003;81;51057;-75
2023/03/04 12:28:54;;;;;;;;;;;;;;;18.18;58.58;100897.38;2184499;80;50421;-74
2023/03/04 12:31:55;;;;;;;;;;;;;;;18.11;58.87;100893.73;2183155;81;22237;-75
2023/03/04 12:34:58;;;;;;;;;;;;;;;18.06;59.07;100895.09;2184627;80;50792;-75
2023/03/04 12:38:01;;;;;;;;;;;;;;;18.08;59.10;100895.41;2175816;81;51327;-74
2023/03/04 12:41:23;;;;;;;;;;;;;;;18.04;59.25;100891.75;2177449;80;51621;-73
2023/03/04 12:44:24;;;;;;;;;;;;;;;18.00;59.45;100891.75;2155829;80;50754;-72
2023/03/04 12:47:30;;;;;;;;;;;;;;;17.92;60.64;100889.11;2155558;82;50449;-74
2023/03/04 12:50:37;;;;;;;;;;;;;;;17.94;60.47;100891.13;2132005;82;52653;-74
2023/03/04 12:53:48;;;;;;;;;;;;;;;18.00;60.45;100899.79;2157130;80;50436;-76
2023/03/04 12:56:51;;;;;;;;;;;;;;;18.13;60.24;100891.72;2214373;80;51524;-74
2023/03/04 13:00:10;;;;;;;;;;;;;;;18.18;59.99;100902.23;2175901;79;50772;-76
2023/03/04 13:03:22;;;;;;;;;;;;;;;18.15;60.14;100895.06;2148979;81;51184;-73
2023/03/04 13:06:31;;;;;;;;;;;;;;;18.16;60.21;100898.05;2145780;81;50755;-74
2023/03/04 13:09:33;;;;;;;;;;;;;;;18.17;60.32;100887.69;2145676;83;51996;-74
2023/03/04 13:12:50;;;;;;;;;;;;;;;18.13;60.53;100889.04;2145701;82;51151;-74
2023/03/04 13:15:54;;;;;;;;;;;;;;;18.13;60.58;100894.39;2147092;82;52386;-74
2023/03/04 13:18:55;;;;;;;;;;;;;;;18.08;60.82;100894.08;2149304;81;52025;-74
2023/03/04 13:21:57;;;;;;;;;;;;;;;18.05;61.02;100895.26;2148176;83;51595;-73
2023/03/04 13:24:59;;;;;;;;;;;;;;;18.03;61.09;100897.27;2171077;81;49557;-73
2023/03/04 13:28:02;;;;;;;;;;;;;;;17.94;61.49;100895.14;2147750;82;52440;-73
2023/03/04 13:31:11;;;;;;;;;;;;;;;17.89;61.62;100893.99;2160827;80;51564;-74
2023/03/04 13:34:14;;;;;;;;;;;;;;;17.92;61.67;100896.32;2204439;80;50762;-74
2023/03/04 13:37:29;;;;;;;;;;;;;;;18.02;61.37;100901.80;2206701;79;50451;-73
2023/03/04 13:40:35;;;;;;;;;;;;;;;18.08;61.24;100901.60;2221033;79;51579;-74
2023/03/04 13:43:43;;;;;;;;;;;;;;;18.17;60.99;100899.75;2221138;78;50287;-74
2023/03/04 13:46:42;;;;;;;;;;;;;;;18.24;60.92;100902.06;2203460;80;22227;-76
2023/03/04 13:49:43;;;;;;;;;;;;;;;18.28;60.75;100896.66;2204534;80;51539;-73
2023/03/04 13:52:45;;;;;;;;;;;;;;;18.28;60.86;100906.05;2222037;79;51674;-72
2023/03/04 13:55:48;;;;;;;;;;;;;;;18.26;60.89;100904.03;2204981;79;50817;-73
2023/03/04 13:58:51;;;;;;;;;;;;;;;18.20;61.08;100904.75;2197079;79;50757;-74
2023/03/04 14:01:59;;;;;;;;;;;;;;;18.16;61.14;100902.94;2184459;80;50831;-74
2023/03/04 14:05:02;;;;;;;;;;;;;;;18.14;61.28;100896.08;2187270;80;51714;-74
2023/03/04 14:08:23;;;;;;;;;;;;;;;18.08;61.46;100890.06;2222374;79;50817;-74
2023/03/04 14:11:26;;;;;;;;;;;;;;;18.04;61.66;100895.77;2205666;79;51512;-73
2023/03/04 14:14:29;;;;;;;;;;;;;;;18.01;61.82;100898.80;2205690;79;50435;-74
2023/03/04 14:17:31;;;;;;;;;;;;;;;18.04;61.76;100902.47;2222925;78;52509;-73
2023/03/04 14:20:33;;;;;;;;;;;;;;;18.05;61.72;100894.75;2205462;79;50748;-74
2023/03/04 14:23:35;;;;;;;;;;;;;;;18.15;61.46;100891.88;2205744;79;50430;-72
2023/03/04 14:26:38;;;;;;;;;;;;;;;18.17;61.46;100896.55;2205527;80;50419;-73
2023/03/04 14:29:39;;;;;;;;;;;;;;;18.24;61.32;100892.17;2178536;79;52509;-73
2023/03/04 14:32:41;;;;;;;;;;;;;;;18.34;61.08;100886.61;2186701;79;51481;-72
2023/03/04 14:35:46;;;;;;;;;;;;;;;18.32;61.11;100895.32;2205656;80;51516;-74
2023/03/04 14:38:51;;;;;;;;;;;;;;;18.28;61.16;100895.33;2206049;80;51573;-74
2023/03/04 14:41:53;;;;;;;;;;;;;;;18.28;61.17;100898.84;2222005;79;51221;-74
2023/03/04 14:44:54;;;;;;;;;;;;;;;18.23;61.30;100886.98;2205630;80;50824;-73
2023/03/04 14:47:57;;;;;;;;;;;;;;;18.18;61.44;100886.16;2205406;79;51546;-74
2023/03/04 14:50:59;;;;;;;;;;;;;;;18.11;61.62;100892.39;2205099;79;50433;-74
2023/03/04 14:54:01;;;;;;;;;;;;;;;18.04;61.87;100885.06;2221983;78;50992;-74
2023/03/04 14:57:13;;;;;;;;;;;;;;;18.06;61.97;100892.42;2205294;80;50848;-74
2023/03/04 15:00:15;;;;;;;;;;;;;;;18.06;61.92;100895.09;2174162;79;51703;-75
2023/03/04 15:03:22;;;;;;;;;;;;;;;18.10;61.79;100884.86;2188275;80;51513;-74
2023/03/04 15:06:27;;;;;;;;;;;;;;;18.16;61.70;100886.00;2169276;82;51209;-73
2023/03/04 15:09:29;;;;;;;;;;;;;;;18.22;61.53;100893.36;2167247;82;50861;-74
2023/03/04 15:12:31;;;;;;;;;;;;;;;18.26;61.41;100896.00;2167086;82;50735;-74
2023/03/04 15:15:40;;;;;;;;;;;;;;;18.33;61.19;100888.94;2167286;82;50458;-74
2023/03/04 15:19:02;;;;;;;;;;;;;;;18.32;61.15;100892.64;2167772;81;50831;-73
2023/03/04 15:22:04;;;;;;;;;;;;;;;18.33;61.12;100886.27;2167934;82;50462;-74
2023/03/04 15:25:06;;;;;;;;;;;;;;;18.28;61.22;100877.91;2167863;81;50471;-73
2023/03/04 15:28:09;;;;;;;;;;;;;;;18.20;61.40;100869.93;2191181;81;50578;-73
2023/03/04 15:31:17;;;;;;;;;;;;;;;18.19;61.43;100865.59;2150847;80;49615;-74
2023/03/04 15:34:19;;;;;;;;;;;;;;;18.13;61.59;100871.12;2221983;78;51547;-74
2023/03/04 15:37:22;;;;;;;;;;;;;;;18.08;61.89;100864.63;2205602;79;50774;-74
2023/03/04 15:40:25;;;;;;;;;;;;;;;18.04;61.98;100863.64;2204914;79;50672;-74